Flight Track Log - Related Links

Times and Time Zones

All times are in EDT time to prevent confusion due to time zone crossing. See the DAL1578 flight status page for this flight to view local times or setup timezone preferences in your user account.

Time Position Orientation Groundspeed Altitude Reporting Facility
EDT Latitude Longitude Course Direction KTS MPH feet Rate Location/Type
Thu 12:47:17 PM 39.8667 -104.5667 113° Southeast 211 243 6,900  Level Denver TRACON
Thu 12:48:17 PM 39.8333 -104.4833 117° Southeast 282 325 8,400 1,778 Climbing Denver TRACON
Thu 12:49:05 PM 39.8147 -104.4067 108° East 289 333 10,100 1,636 Climbing Denver Center
Thu 12:50:07 PM 39.7775 -104.2983 114° Southeast 325 374 11,400 1,597 Climbing Denver Center
Thu 12:50:44 PM 39.6582 -104.0246 113° Southeast  Level FlightAware Approximate
Thu 12:51:09 PM 39.7303 -104.1633 114° Southeast 377 434 13,400  Level Denver Center
Thu 12:52:00 PM 39.6016 -103.8549 113° Southeast  Level FlightAware Approximate
Thu 12:52:11 PM 39.6850 -104.0325 114° Southeast 398 458 15,700  Level Denver Center
Thu 12:53:13 PM 39.6342 -103.9017 117° Southeast 407 468 17,800 1,824 Climbing Denver Center
Thu 12:54:16 PM 39.5792 -103.7447 114° Southeast 430 495 19,500 1,632 Climbing Denver Center
Thu 12:55:18 PM 39.5464 -103.6194 109° East 419 482 21,200 1,645 Climbing Denver Center
Thu 12:56:20 PM 39.5133 -103.4658 106° East 442 509 22,900 1,790 Climbing Denver Center
Thu 12:57:22 PM 39.4928 -103.2711 98° East 458 527 24,900 1,742 Climbing Denver Center
Thu 12:58:24 PM 39.4750 -103.1100 98° East 455 524 26,500 1,403 Climbing Denver Center
Thu 12:59:26 PM 39.4572 -102.9450 98° East 462 532 27,800 1,355 Climbing Denver Center
Thu 01:00:28 PM 39.4269 -102.7811 103° East 473 544 29,300 1,645 Climbing Denver Center
Thu 01:01:30 PM 39.3844 -102.6256 109° East 463 533 31,200 1,790 Climbing Denver Center
Thu 01:02:32 PM 39.3386 -102.4594 110° East 453 521 33,000 1,536 Climbing Denver Center
Thu 01:03:35 PM 39.2936 -102.2914 109° East 445 512 34,400 1,248 Climbing Denver Center
Thu 01:04:37 PM 39.2533 -102.1489 110° East 442 509 35,600 1,161 Climbing Denver Center
Thu 01:05:39 PM 39.2067 -101.9828 110° East 440 506 36,800 677 Climbing Denver Center
Thu 01:06:41 PM 39.1669 -101.8411 110° East 439 505 37,000 97 Climbing Denver Center
Thu 01:07:43 PM 39.1256 -101.6947 110° East 440 506 37,000  Level Denver Center
Thu 01:08:45 PM 39.0772 -101.5283 110° East 445 512 37,000  Level Denver Center
Thu 01:09:47 PM 39.0361 -101.3875 111° Southeast 442 509 37,000  Level Denver Center
Thu 01:10:49 PM 38.9900 -101.2256 110° East 443 510 37,000  Level Denver Center
Thu 01:11:51 PM 38.9497 -101.0839 110° East 440 506 37,000  Level Denver Center
Thu 01:12:53 PM 38.9014 -100.9186 111° Southeast 441 507 37,000  Level Denver Center
Thu 01:13:55 PM 38.8606 -100.7769 110° East 439 505 37,000  Level Denver Center
Thu 01:14:57 PM 38.8106 -100.6108 111° Southeast 445 512 37,000  Level Denver Center
Thu 01:15:59 PM 38.7692 -100.4692 111° Southeast 443 510 37,000  Level Denver Center
Thu 01:17:01 PM 38.7194 -100.3031 111° Southeast 445 512 37,000  Level Denver Center
Thu 01:18:04 PM 38.6753 -100.1592 111° Southeast 449 517 37,000  Level Denver Center
Thu 01:18:45 PM 38.6456 -100.0625 111° Southeast 449 517 37,000  Level Kansas City Center
Thu 01:19:49 PM 38.5961 -99.8978 111° Southeast 445 512 37,000  Level Kansas City Center
Thu 01:20:51 PM 38.5519 -99.7558 112° Southeast 446 513 37,000  Level Kansas City Center
Thu 01:21:54 PM 38.5006 -99.5897 112° Southeast 449 517 37,000  Level Kansas City Center
Thu 01:22:55 PM 38.4542 -99.4378 111° Southeast 445 512 37,000  Level Kansas City Center
Thu 01:23:55 PM 38.4089 -99.2903 111° Southeast 447 514 37,000  Level Kansas City Center
Thu 01:25:00 PM 38.3639 -99.1431 111° Southeast 445 512 37,000  Level Kansas City Center
Thu 01:26:00 PM 38.3158 -98.9953 112° Southeast 449 517 37,000  Level Kansas City Center
Thu 01:27:04 PM 38.2706 -98.8494 112° Southeast 446 513 37,000  Level Kansas City Center
Thu 01:28:05 PM 38.2233 -98.7011 112° Southeast 451 519 37,000  Level Kansas City Center
Thu 01:29:06 PM 38.1781 -98.5536 111° Southeast 449 517 37,000  Level Kansas City Center
Thu 01:30:10 PM 38.1214 -98.3764 112° Southeast 450 518 37,000  Level Kansas City Center
Thu 01:31:11 PM 38.0733 -98.2286 112° Southeast 452 520 37,000  Level Kansas City Center
Thu 01:32:14 PM 38.0250 -98.0806 112° Southeast 453 521 37,000  Level Kansas City Center
Thu 01:33:14 PM 37.9772 -97.9325 112° Southeast 452 520 37,000  Level Kansas City Center
Thu 01:34:18 PM 37.9281 -97.7825 113° Southeast 455 524 37,000  Level Kansas City Center
Thu 01:35:19 PM 37.8764 -97.6267 113° Southeast 470 541 37,000  Level Kansas City Center
Thu 01:36:20 PM 37.8197 -97.4544 113° Southeast 465 535 37,000  Level Kansas City Center
Thu 01:37:25 PM 37.7744 -97.3172 113° Southeast 459 528 37,000  Level Kansas City Center
Thu 01:38:26 PM 37.7250 -97.1672 113° Southeast 461 531 37,000  Level Kansas City Center
Thu 01:39:26 PM 37.6647 -96.9881 113° Southeast 462 532 37,000  Level Kansas City Center
Thu 01:40:29 PM 37.6147 -96.8389 113° Southeast 463 533 37,000  Level Kansas City Center
Thu 01:41:30 PM 37.5672 -96.6906 112° Southeast 459 528 37,000  Level Kansas City Center
Thu 01:42:34 PM 37.5178 -96.5425 113° Southeast 461 531 37,000  Level Kansas City Center
Thu 01:43:35 PM 37.4647 -96.3892 114° Southeast 460 529 37,000  Level Kansas City Center
Thu 01:44:37 PM 37.4133 -96.2425 114° Southeast 459 528 37,000  Level Kansas City Center
Thu 01:45:38 PM 37.3625 -96.0953 113° Southeast 457 526 37,000  Level Kansas City Center
Thu 01:46:42 PM 37.3019 -95.9172 113° Southeast 459 528 37,000  Level Kansas City Center
Thu 01:47:43 PM 37.2497 -95.7711 114° Southeast 458 527 37,000  Level Kansas City Center
Thu 01:48:45 PM 37.1978 -95.6247 114° Southeast 458 527 37,000  Level Kansas City Center
Thu 01:49:48 PM 37.1447 -95.4789 114° Southeast 458 527 37,000  Level Kansas City Center
Thu 01:50:49 PM 37.0914 -95.3339 115° Southeast 457 526 37,000  Level Kansas City Center
Thu 01:51:52 PM 37.0392 -95.1864 114° Southeast 458 527 37,000  Level Kansas City Center
Thu 01:52:53 PM 36.9858 -95.0389 114° Southeast 461 531 37,000  Level Kansas City Center
Thu 01:53:57 PM 36.9217 -94.8644 115° Southeast 460 529 37,000  Level Kansas City Center
Thu 01:54:58 PM 36.8700 -94.7181 114° Southeast 459 528 37,000  Level Kansas City Center
Thu 01:56:00 PM 36.8169 -94.5722 114° Southeast 460 529 37,000  Level Kansas City Center
Thu 01:57:03 PM 36.7658 -94.4272 114° Southeast 457 526 37,000  Level Kansas City Center
Thu 01:58:03 PM 36.7067 -94.2872 118° Southeast 455 524 37,000  Level Kansas City Center
Thu 01:59:07 PM 36.6250 -94.1683 131° Southeast 450 518 37,000  Level Kansas City Center
Thu 02:00:08 PM 36.5439 -94.0475 130° Southeast 451 519 37,000  Level Kansas City Center
Thu 02:01:11 PM 36.4478 -93.9025 129° Southeast 452 520 37,000  Level Kansas City Center
Thu 02:02:13 PM 36.3667 -93.7822 130° Southeast 453 521 37,000  Level Kansas City Center
Thu 02:03:02 PM 36.3228 -93.6797 118° Southeast 449 517 37,000  Level Memphis Center
Thu 02:04:02 PM 36.2747 -93.5286 111° Southeast 447 514 37,000  Level Memphis Center
Thu 02:05:02 PM 36.2261 -93.3825 112° Southeast 452 520 37,000  Level Memphis Center
Thu 02:06:02 PM 36.1775 -93.2367 112° Southeast 457 526 37,000  Level Memphis Center
Thu 02:07:02 PM 36.1286 -93.0911 113° Southeast 457 526 37,000  Level Memphis Center
Thu 02:08:02 PM 36.0817 -92.9508 112° Southeast 457 526 37,000  Level Memphis Center
Thu 02:09:02 PM 36.0306 -92.8031 113° Southeast 462 532 37,000  Level Memphis Center
Thu 02:10:02 PM 35.9831 -92.6606 112° Southeast 462 532 37,000  Level Memphis Center
Thu 02:11:02 PM 35.9336 -92.5208 114° Southeast 451 519 37,000  Level Memphis Center
Thu 02:12:02 PM 35.8689 -92.3883 121° Southeast 446 513 37,000  Level Memphis Center
Thu 02:13:02 PM 35.8044 -92.2536 121° Southeast 451 519 37,000  Level Memphis Center
Thu 02:14:02 PM 35.7417 -92.1244 121° Southeast 446 513 37,000  Level Memphis Center
Thu 02:15:02 PM 35.6725 -91.9950 123° Southeast 446 513 37,000  Level Memphis Center
Thu 02:16:02 PM 35.6033 -91.8661 123° Southeast 452 520 37,000  Level Memphis Center
Thu 02:17:02 PM 35.5339 -91.7397 124° Southeast 452 520 37,000  Level Memphis Center
Thu 02:18:02 PM 35.4664 -91.6114 123° Southeast 447 514 37,000  Level Memphis Center
Thu 02:19:02 PM 35.3967 -91.4881 125° Southeast 447 514 37,000  Level Memphis Center
Thu 02:20:02 PM 35.3350 -91.3572 120° Southeast 447 514 37,000  Level Memphis Center
Thu 02:21:02 PM 35.2733 -91.2269 120° Southeast 447 514 37,000  Level Memphis Center
Thu 02:22:02 PM 35.2161 -91.0814 116° Southeast 435 501 37,000  Level Memphis Center
Thu 02:23:02 PM 35.1708 -90.9439 112° Southeast 429 494 37,000  Level Memphis Center
Thu 02:24:02 PM 35.1525 -90.8092 99° East 436 502 37,000  Level Memphis Center
Thu 02:25:02 PM 35.1342 -90.6592 98° East 441 507 37,000  Level Memphis Center
Thu 02:26:02 PM 35.1136 -90.5119 100° East 446 513 37,000  Level Memphis Center
Thu 02:27:02 PM 35.1200 -90.3622 87° East 439 505 37,000  Level Memphis Center
Thu 02:28:02 PM 35.1492 -90.2175 76° East 439 505 37,000  Level Memphis Center
Thu 02:29:02 PM 35.1925 -90.0572 72° East 439 505 37,000  Level Memphis Center
Thu 02:30:02 PM 35.2319 -89.9147 71° East 444 511 37,000  Level Memphis Center
Thu 02:31:02 PM 35.2375 -89.7672 87° East 430 495 37,000  Level Memphis Center
Thu 02:32:02 PM 35.2011 -89.6228 107° East 425 489 37,000  Level Memphis Center
Thu 02:33:02 PM 35.1647 -89.4783 107° East 478 550 37,000  Level Memphis Center
Thu 02:34:02 PM 35.1283 -89.3339 107° East 455 524 37,000  Level Memphis Center
Thu 02:35:02 PM 35.0939 -89.2100 109° East 442 509 37,000  Level Memphis Center
Thu 02:36:02 PM 35.0589 -89.0683 107° East 437 503 37,000  Level Memphis Center
Thu 02:37:02 PM 35.0219 -88.9269 108° East 438 504 37,000 -650 Level Memphis Center
Thu 02:38:02 PM 34.9828 -88.7856 109° East 443 510 35,700 -1,000 Descending Memphis Center
Thu 02:39:02 PM 34.9453 -88.6419 108° East 443 510 35,000 -350 Descending Memphis Center
Thu 02:40:02 PM 34.9033 -88.4833 108° East 443 510 35,000 -450 Level Memphis Center
Thu 02:41:02 PM 34.8703 -88.3625 108° East 429 494 34,100 -667 Descending Memphis Center
Thu 02:43:02 PM 34.7875 -88.0483 108° East 463 533 33,000 -367 Descending Memphis Center
Thu 02:44:02 PM 34.7472 -87.9031 109° East 457 526 33,000  Level Memphis Center
Thu 02:45:02 PM 34.7111 -87.7625 107° East 452 520 33,000  Level Memphis Center
Thu 02:46:02 PM 34.6703 -87.6197 109° East 440 506 33,000  Level Memphis Center
Thu 02:47:02 PM 34.6297 -87.4822 110° East 435 501 33,000  Level Memphis Center
Thu 02:49:26 PM 34.5669 -87.1464 103° East 451 519 33,000  Level Atlanta Center
Thu 02:50:26 PM 34.5392 -87.0042 103° East 446 513 33,000 -450 Level Atlanta Center
Thu 02:51:26 PM 34.5111 -86.8622 103° East 446 513 32,100 -1,200 Descending Atlanta Center
Thu 02:52:26 PM 34.4831 -86.7125 103° East 440 506 30,600 -1,300 Descending Atlanta Center
Thu 02:53:26 PM 34.4531 -86.5656 104° East 440 506 29,500 -950 Descending Atlanta Center
Thu 02:54:26 PM 34.4267 -86.4186 102° East 445 512 28,700 -800 Descending Atlanta Center
Thu 02:55:26 PM 34.3981 -86.2744 103° East 445 512 27,900 -1,150 Descending Atlanta Center
Thu 02:56:26 PM 34.3672 -86.1275 104° East 445 512 26,400 -1,150 Descending Atlanta Center
Thu 02:57:26 PM 34.3403 -85.9833 103° East 445 512 25,600 -850 Descending Atlanta Center
Thu 02:58:26 PM 34.3092 -85.8344 104° East 445 512 24,700 -1,000 Descending Atlanta Center
Thu 02:59:26 PM 34.2778 -85.6981 106° East 433 498 23,600 -1,750 Descending Atlanta Center
Thu 03:00:26 PM 34.2461 -85.5617 106° East 428 493 21,200 -2,700 Descending Atlanta Center
Thu 03:01:26 PM 34.2058 -85.4328 111° Southeast 420 483 18,200 -2,500 Descending Atlanta Center
Thu 03:02:26 PM 34.1739 -85.3144 108° East 383 441 16,200 -2,050 Descending Atlanta Center
Thu 03:03:26 PM 34.1414 -85.2008 109° East 365 420 14,100 -1,400 Descending Atlanta Center
Thu 03:04:26 PM 34.1092 -85.0875 109° East 342 394 13,400 -600 Descending Atlanta Center
Thu 03:05:26 PM 34.0744 -85.0069 117° Southeast 294 338 12,900 -1,050 Descending Atlanta Center
Thu 03:06:26 PM 33.9953 -84.9783 163° South 258 297 11,300 -1,600 Descending Atlanta Center
Thu 03:07:26 PM 33.9161 -84.9575 168° South 279 321 9,700 -1,150 Descending Atlanta Center
Thu 03:08:26 PM 33.8369 -84.9392 169° South 284 327 9,000 -350 Descending Atlanta Center
Thu 03:09:26 PM 33.7575 -84.9433 182° South 289 333 9,000 -450 Level Atlanta Center
Thu 03:10:26 PM 33.6847 -84.9250 168° South 284 327 8,100 -1,150 Descending Atlanta Center
Thu 03:11:26 PM 33.6433 -84.8497 123° Southeast 259 298 6,700 -1,021 Descending Atlanta Center
Thu 03:12:47 PM 33.6333 -84.7333 96° East 212 244 5,700 -894 Descending Atlanta TRACON
Thu 03:13:47 PM 33.6333 -84.6667 90° East 198 228 4,600 -1,100 Descending Atlanta TRACON

Login

Don't have an account? Register now (free) for customized features, flight alerts, and more!